createdAt,value
2019-03-11T00:01:11.389Z,36.46
2019-03-11T00:03:41.309Z,35.39
2019-03-11T00:06:11.704Z,36.59
2019-03-11T00:08:42.159Z,35.60
2019-03-11T00:11:12.352Z,34.45
2019-03-11T00:13:42.343Z,34.33
2019-03-11T00:16:12.466Z,35.61
2019-03-11T00:18:42.679Z,37.68
2019-03-11T00:21:12.899Z,38.12
2019-03-11T00:23:42.845Z,37.66
2019-03-11T00:26:12.836Z,38.59
2019-03-11T00:28:43.043Z,37.90
2019-03-11T00:31:13.090Z,37.83
2019-03-11T00:33:43.315Z,39.26
2019-03-11T00:36:13.646Z,40.01
2019-03-11T00:38:43.545Z,38.99
2019-03-11T00:41:13.451Z,38.12
2019-03-11T00:43:43.654Z,38.67
2019-03-11T00:46:13.875Z,39.05
2019-03-11T00:48:43.881Z,39.45
2019-03-11T00:51:13.792Z,38.18
2019-03-11T00:53:44.007Z,41.10
2019-03-11T00:56:14.204Z,39.15
2019-03-11T00:58:44.102Z,39.49
2019-03-11T01:01:14.096Z,39.40
2019-03-11T01:03:44.291Z,39.11
2019-03-11T01:06:14.602Z,37.70
2019-03-11T01:08:44.631Z,38.28
2019-03-11T01:11:14.835Z,38.04
2019-03-11T01:13:44.841Z,40.08
2019-03-11T01:16:14.846Z,39.70
2019-03-11T01:18:45.023Z,39.31
2019-03-11T01:21:15.224Z,39.57
2019-03-11T01:23:45.119Z,42.25
2019-03-11T01:26:15.038Z,39.54
2019-03-11T01:28:45.236Z,39.15
2019-03-11T01:31:15.437Z,38.70
2019-03-11T01:33:45.334Z,37.56
2019-03-11T01:36:15.337Z,39.48
2019-03-11T01:38:45.511Z,42.50
2019-03-11T01:41:15.695Z,38.31
2019-03-11T01:43:45.585Z,37.64
2019-03-11T01:46:15.499Z,36.67
2019-03-11T01:48:45.697Z,38.96
2019-03-11T01:51:15.887Z,41.28
2019-03-11T01:53:45.798Z,40.18
2019-03-11T01:56:15.703Z,42.05
2019-03-11T01:58:45.910Z,39.36
2019-03-11T02:01:16.131Z,38.52
2019-03-11T02:03:46.141Z,38.90
2019-03-11T02:06:16.282Z,38.43
2019-03-11T02:08:46.740Z,40.23
2019-03-11T02:11:16.932Z,39.89
2019-03-11T02:13:47.032Z,39.81
2019-03-11T02:16:17.039Z,39.56
2019-03-11T02:18:47.249Z,39.25
2019-03-11T02:21:17.455Z,39.64
2019-03-11T02:23:47.365Z,39.11
2019-03-11T02:26:17.261Z,39.83
2019-03-11T02:28:47.458Z,38.63
2019-03-11T02:31:17.555Z,38.55
2019-03-11T02:33:47.845Z,39.35
2019-03-11T02:36:18.057Z,39.12
2019-03-11T02:38:47.963Z,40.04
2019-03-11T02:41:17.884Z,40.54
2019-03-11T02:43:48.054Z,40.71
2019-03-11T02:46:18.245Z,39.48
2019-03-11T02:48:48.141Z,43.96
2019-03-11T02:51:18.199Z,46.20
2019-03-11T02:53:48.429Z,46.51
2019-03-11T02:56:19.124Z,46.40
2019-03-11T02:58:49.145Z,43.57
2019-03-11T03:01:37.882Z,42.21
2019-03-11T03:04:26.970Z,41.92
2019-03-11T03:06:57.436Z,41.45
2019-03-11T03:09:27.336Z,41.03
2019-03-11T03:11:57.551Z,41.74
2019-03-11T03:14:27.570Z,41.17
2019-03-11T03:16:57.450Z,41.04
2019-03-11T03:19:27.686Z,42.07
2019-03-11T03:21:57.883Z,41.83
2019-03-11T03:24:27.948Z,42.29
2019-03-11T03:26:58.062Z,42.29
2019-03-11T03:29:28.307Z,42.57
2019-03-11T03:31:58.584Z,42.44
2019-03-11T03:34:28.648Z,42.80
2019-03-11T03:36:58.541Z,42.34
2019-03-11T03:39:28.714Z,42.34
2019-03-11T03:41:59.080Z,42.93
2019-03-11T03:44:29.096Z,43.70
2019-03-11T03:46:59.210Z,44.24
2019-03-11T03:49:29.422Z,43.61
2019-03-11T03:51:59.534Z,43.04
2019-03-11T03:54:29.757Z,43.15
2019-03-11T03:56:59.952Z,43.18
2019-03-11T03:59:29.841Z,43.08
2019-03-11T04:01:59.738Z,42.41
2019-03-11T04:04:30.028Z,43.76
2019-03-11T04:07:00.217Z,45.62
2019-03-11T04:09:30.259Z,45.14
2019-03-11T04:12:00.367Z,44.33
2019-03-11T04:14:30.586Z,43.62
2019-03-11T04:17:00.785Z,44.62
2019-03-11T04:19:30.983Z,45.08
2019-03-11T04:22:01.082Z,44.76
2019-03-11T04:24:31.377Z,46.00
2019-03-11T04:27:05.915Z,46.76
2019-03-11T04:29:35.924Z,46.65
2019-03-11T04:32:06.132Z,47.38
2019-03-11T04:34:36.376Z,46.18
2019-03-11T04:37:06.915Z,46.68
2019-03-11T04:39:37.123Z,45.60
2019-03-11T04:42:07.333Z,45.77
2019-03-11T04:44:37.337Z,45.45
2019-03-11T04:47:07.461Z,44.38
2019-03-11T04:49:37.645Z,44.46
2019-03-11T04:52:07.855Z,44.71
2019-03-11T04:54:37.847Z,44.49
2019-03-11T04:57:07.859Z,43.81
2019-03-11T04:59:38.069Z,43.28
2019-03-11T05:02:08.272Z,44.04
2019-03-11T05:04:38.378Z,44.51
2019-03-11T05:07:08.265Z,44.06
2019-03-11T05:09:38.655Z,43.86
2019-03-11T05:12:08.746Z,44.17
2019-03-11T05:14:38.944Z,44.46
2019-03-11T05:17:09.166Z,44.62
2019-03-11T05:19:39.180Z,44.33
2019-03-11T05:22:09.096Z,43.50
2019-03-11T05:24:39.363Z,44.26
2019-03-11T05:27:09.551Z,44.06
2019-03-11T05:29:39.517Z,44.05
2019-03-11T05:32:09.407Z,43.92
2019-03-11T05:34:39.602Z,43.68
2019-03-11T05:37:09.822Z,43.54
2019-03-11T05:39:39.935Z,43.07
2019-03-11T05:42:09.953Z,43.77
2019-03-11T05:44:40.147Z,43.61
2019-03-11T05:47:10.333Z,43.68
2019-03-11T05:49:40.234Z,44.08
2019-03-11T05:52:10.452Z,45.04
2019-03-11T05:54:40.367Z,43.61
2019-03-11T05:57:10.478Z,43.53
2019-03-11T05:59:40.665Z,43.50
2019-03-11T06:02:10.867Z,43.28
2019-03-11T06:04:40.865Z,43.23
2019-03-11T06:07:10.892Z,42.67
2019-03-11T06:09:41.406Z,41.90
2019-03-11T06:12:11.678Z,43.71
2019-03-11T06:14:41.580Z,45.23
2019-03-11T06:17:11.565Z,46.43
2019-03-11T06:19:41.766Z,46.89
2019-03-11T06:22:21.107Z,45.87
2019-03-11T06:24:51.000Z,45.14
2019-03-11T06:27:20.905Z,43.33
2019-03-11T06:29:51.114Z,45.15
2019-03-11T06:32:21.134Z,45.73
2019-03-11T06:34:51.365Z,45.62
2019-03-11T06:37:21.548Z,45.72
2019-03-11T06:39:51.441Z,46.33
2019-03-11T06:42:21.458Z,45.21
2019-03-11T06:44:51.646Z,45.63
2019-03-11T06:47:21.848Z,45.78
2019-03-11T06:49:51.875Z,46.11
2019-03-11T06:52:21.771Z,46.06
2019-03-11T06:54:52.013Z,44.01
2019-03-11T06:57:22.237Z,43.74
2019-03-11T06:59:52.141Z,42.35
2019-03-11T07:02:22.042Z,42.69
2019-03-11T07:04:52.256Z,41.47
2019-03-11T07:07:22.455Z,40.44
2019-03-11T07:09:52.730Z,40.53
2019-03-11T07:12:22.786Z,39.95
2019-03-11T07:14:53.084Z,37.94
2019-03-11T07:17:23.384Z,37.02
2019-03-11T07:19:53.516Z,37.11
2019-03-11T07:22:23.560Z,35.64
2019-03-11T07:24:53.851Z,36.22
2019-03-11T07:27:24.055Z,35.84
2019-03-11T07:29:53.947Z,34.93
2019-03-11T07:32:23.941Z,34.95
2019-03-11T07:34:54.134Z,34.46
2019-03-11T07:37:24.351Z,34.82
2019-03-11T07:39:54.361Z,34.13
2019-03-11T07:42:24.375Z,33.52
2019-03-11T07:44:54.574Z,32.73
2019-03-11T07:47:24.820Z,31.56
2019-03-11T07:49:54.702Z,38.53
2019-03-11T07:52:26.181Z,32.74
2019-03-11T07:54:56.384Z,30.09
2019-03-11T07:57:26.587Z,29.36
2019-03-11T07:59:57.300Z,29.55
2019-03-11T08:02:27.481Z,28.22
2019-03-11T08:04:57.386Z,27.92
2019-03-11T08:07:27.758Z,28.69
2019-03-11T08:09:58.270Z,32.07
2019-03-11T08:12:28.836Z,28.46
2019-03-11T08:14:58.724Z,26.20
2019-03-11T08:17:28.836Z,26.57
2019-03-11T08:19:59.044Z,25.99
2019-03-11T08:22:29.220Z,26.07
2019-03-11T08:24:59.110Z,23.64
2019-03-11T08:27:29.104Z,22.94
2019-03-11T08:29:59.645Z,23.47
2019-03-11T08:32:29.787Z,22.54
2019-03-11T08:34:59.978Z,23.15
2019-03-11T08:37:30.153Z,23.15
2019-03-11T08:40:00.192Z,23.07
2019-03-11T08:42:30.136Z,22.40
2019-03-11T08:45:00.464Z,21.76
2019-03-11T08:47:30.706Z,20.56
2019-03-11T08:50:00.722Z,21.90
2019-03-11T08:52:30.845Z,22.73
2019-03-11T08:55:01.061Z,21.38
2019-03-11T08:57:31.292Z,21.74
2019-03-11T09:00:01.197Z,22.13
2019-03-11T09:02:31.223Z,21.33
2019-03-11T09:05:01.454Z,22.20
2019-03-11T09:07:31.639Z,20.99
2019-03-11T09:10:01.888Z,18.91
2019-03-11T09:12:32.235Z,19.13
2019-03-11T09:15:02.371Z,18.67
2019-03-11T09:17:32.526Z,18.88
2019-03-11T09:20:02.755Z,18.39
2019-03-11T09:22:32.983Z,19.68
2019-03-11T09:25:03.047Z,19.24
2019-03-11T09:27:33.082Z,19.03
2019-03-11T09:30:03.360Z,19.76
2019-03-11T09:32:33.553Z,19.54
2019-03-11T09:35:03.683Z,19.97
2019-03-11T09:37:33.728Z,20.79
2019-03-11T09:40:04.252Z,19.61
2019-03-11T09:42:34.504Z,19.26
2019-03-11T09:45:04.668Z,19.10
2019-03-11T09:47:34.720Z,19.00
2019-03-11T09:50:05.193Z,18.14
2019-03-11T09:52:35.234Z,17.98
2019-03-11T09:55:05.674Z,17.87
2019-03-11T09:57:35.867Z,17.07
2019-03-11T10:00:07.958Z,16.32
2019-03-11T10:02:37.894Z,17.43
2019-03-11T10:05:08.639Z,16.93
2019-03-11T10:07:38.886Z,16.04
2019-03-11T10:10:11.003Z,15.74
2019-03-11T10:12:41.402Z,16.06
2019-03-11T10:15:13.798Z,16.39
2019-03-11T10:17:44.209Z,16.18
2019-03-11T10:20:14.805Z,16.93
2019-03-11T10:22:44.920Z,17.31
2019-03-11T10:25:16.142Z,16.97
2019-03-11T10:27:46.366Z,16.73
2019-03-11T10:30:17.381Z,16.91
2019-03-11T10:32:47.706Z,17.28
2019-03-11T10:35:33.387Z,17.36
2019-03-11T10:37:49.915Z,18.21
2019-03-11T10:40:21.355Z,19.85
2019-03-11T10:42:51.677Z,19.01
2019-03-11T10:45:30.244Z,18.21
2019-03-11T10:47:53.665Z,19.22
2019-03-11T10:50:24.071Z,19.15
2019-03-11T10:52:54.276Z,18.62
2019-03-11T10:55:24.515Z,18.70
2019-03-11T10:57:54.735Z,17.74
2019-03-11T11:00:26.452Z,17.89
2019-03-11T11:02:56.705Z,18.69
2019-03-11T11:05:26.683Z,18.42
2019-03-11T11:07:56.819Z,17.31
2019-03-11T11:10:27.129Z,17.09
2019-03-11T11:12:57.330Z,17.00
2019-03-11T11:15:27.632Z,18.22
2019-03-11T11:17:57.836Z,19.14
2019-03-11T11:20:28.253Z,18.80
2019-03-11T11:22:58.265Z,19.95
2019-03-11T11:25:28.681Z,18.99
2019-03-11T11:27:58.865Z,19.56
2019-03-11T11:30:29.065Z,19.83
2019-03-11T11:32:59.085Z,19.75
2019-03-11T11:35:29.288Z,19.50
2019-03-11T11:37:59.499Z,19.04
2019-03-11T11:40:29.625Z,19.16
2019-03-11T11:42:59.850Z,18.94
2019-03-11T11:45:30.189Z,18.44
2019-03-11T11:48:00.412Z,17.54
2019-03-11T11:50:30.826Z,18.04
2019-03-11T11:53:01.044Z,18.23
2019-03-11T11:55:31.148Z,18.71
2019-03-11T11:58:01.175Z,18.20
2019-03-11T12:00:32.409Z,18.27
2019-03-11T12:03:02.603Z,18.67
2019-03-11T12:05:32.738Z,18.47
2019-03-11T12:08:02.859Z,19.23
2019-03-11T12:10:33.082Z,19.79
2019-03-11T12:13:03.800Z,20.35
2019-03-11T12:15:34.165Z,20.38
2019-03-11T12:18:04.320Z,20.05
2019-03-11T12:20:34.698Z,20.75
2019-03-11T12:23:04.895Z,20.73
2019-03-11T12:25:34.920Z,20.36
2019-03-11T12:28:05.145Z,20.12
2019-03-11T12:30:35.433Z,20.56
2019-03-11T12:33:05.882Z,21.62
2019-03-11T12:35:36.123Z,20.94
2019-03-11T12:38:06.494Z,21.77
2019-03-11T12:40:36.745Z,22.14
2019-03-11T12:43:06.998Z,22.61
2019-03-11T12:45:37.426Z,22.59
2019-03-11T12:48:07.708Z,21.91
2019-03-11T12:50:38.017Z,22.15
2019-03-11T12:53:08.349Z,22.21
2019-03-11T12:55:38.633Z,21.86
2019-03-11T12:58:08.879Z,21.45
2019-03-11T13:00:39.166Z,21.00
2019-03-11T13:03:09.412Z,19.81
2019-03-11T13:05:39.656Z,19.66
2019-03-11T13:08:09.993Z,19.05
2019-03-11T13:10:40.839Z,19.54
2019-03-11T13:13:11.192Z,19.48
2019-03-11T13:15:41.483Z,19.74
2019-03-11T13:18:46.486Z,20.32
2019-03-11T13:21:23.354Z,21.24
2019-03-11T13:23:54.246Z,21.92
2019-03-11T13:26:25.172Z,22.19
2019-03-11T13:28:56.011Z,24.41
2019-03-11T13:31:27.039Z,21.56
2019-03-11T13:33:57.686Z,25.33
2019-03-11T13:36:28.524Z,21.20
2019-03-11T13:38:59.158Z,21.01
2019-03-11T13:41:29.408Z,21.87
2019-03-11T13:43:59.658Z,22.10
2019-03-11T13:46:30.211Z,22.17
2019-03-11T13:49:01.078Z,22.34
2019-03-11T13:51:32.311Z,22.14
2019-03-11T13:54:02.553Z,22.63
2019-03-11T13:56:33.367Z,22.74
2019-03-11T13:59:03.619Z,22.68
2019-03-11T14:01:33.857Z,22.25
2019-03-11T14:04:04.100Z,22.18
2019-03-11T14:06:34.353Z,22.51
2019-03-11T14:09:05.940Z,22.80
2019-03-11T14:11:36.185Z,23.06
2019-03-11T14:14:06.742Z,23.28
2019-03-11T14:16:37.438Z,23.31
2019-03-11T14:19:07.813Z,23.72
2019-03-11T14:21:38.071Z,23.74
2019-03-11T14:24:08.334Z,23.93
2019-03-11T14:26:38.650Z,23.59
2019-03-11T14:29:08.903Z,23.55
2019-03-11T14:31:39.289Z,24.16
2019-03-11T14:34:09.510Z,24.63
2019-03-11T14:36:39.789Z,24.08
2019-03-11T14:39:10.044Z,24.56
2019-03-11T14:41:40.322Z,24.53
2019-03-11T14:44:10.554Z,24.91
2019-03-11T14:46:40.789Z,24.52
2019-03-11T14:49:11.039Z,24.88
2019-03-11T14:51:41.287Z,25.46
2019-03-11T14:54:11.528Z,25.49
2019-03-11T14:56:41.778Z,25.39
2019-03-11T14:59:12.009Z,25.54
2019-03-11T15:01:42.249Z,24.95
2019-03-11T15:04:12.501Z,25.42
2019-03-11T15:06:42.745Z,25.58
2019-03-11T15:09:12.999Z,24.97
2019-03-11T15:11:43.229Z,25.29
2019-03-11T15:14:13.586Z,25.34
2019-03-11T15:16:43.831Z,25.22
2019-03-11T15:19:14.083Z,25.63
2019-03-11T15:21:44.326Z,25.22
2019-03-11T15:24:14.565Z,25.72
2019-03-11T15:26:44.810Z,26.05
2019-03-11T15:29:15.053Z,25.97
2019-03-11T15:31:45.301Z,25.92
2019-03-11T15:34:15.545Z,25.88
2019-03-11T15:36:45.925Z,25.83
2019-03-11T15:39:16.269Z,25.93
2019-03-11T15:41:46.507Z,25.76
2019-03-11T15:44:16.755Z,25.92
2019-03-11T15:46:46.999Z,25.60
2019-03-11T15:49:17.243Z,25.53
2019-03-11T15:51:47.508Z,25.31
2019-03-11T15:54:17.738Z,25.99
2019-03-11T15:56:48.007Z,26.44
2019-03-11T15:59:18.263Z,26.49
2019-03-11T16:01:48.500Z,26.57
2019-03-11T16:04:18.755Z,26.14
2019-03-11T16:06:49.021Z,26.12
2019-03-11T16:09:19.897Z,26.17
2019-03-11T16:11:50.319Z,26.71
2019-03-11T16:14:20.920Z,26.97
2019-03-11T16:16:51.454Z,26.75
2019-03-11T16:19:21.767Z,27.56
2019-03-11T16:21:52.027Z,27.65
2019-03-11T16:24:22.260Z,27.74
2019-03-11T16:26:52.501Z,27.97
2019-03-11T16:29:22.747Z,27.88
2019-03-11T16:31:53.007Z,28.03
2019-03-11T16:34:23.326Z,28.17
2019-03-11T16:36:53.577Z,28.83
2019-03-11T16:39:23.817Z,28.60
2019-03-11T16:41:54.111Z,28.68
2019-03-11T16:44:24.363Z,28.89
2019-03-11T16:46:54.718Z,28.07
2019-03-11T16:49:24.976Z,28.54
2019-03-11T16:51:55.216Z,28.82
2019-03-11T16:54:25.467Z,29.81
2019-03-11T16:56:55.710Z,29.31
2019-03-11T16:59:26.588Z,29.63
2019-03-11T17:01:57.428Z,29.57
2019-03-11T17:04:28.368Z,29.81
2019-03-11T17:06:59.101Z,29.37
2019-03-11T17:09:29.829Z,29.46
2019-03-11T17:12:02.811Z,29.56
2019-03-11T17:14:33.748Z,29.55
2019-03-11T17:17:04.571Z,29.78
2019-03-11T17:19:35.525Z,29.44
2019-03-11T17:22:08.269Z,29.81
2019-03-11T17:24:37.760Z,30.00
2019-03-11T17:27:08.036Z,29.92
2019-03-11T17:29:38.288Z,30.18
2019-03-11T17:32:08.551Z,30.40
2019-03-11T17:34:38.789Z,30.69
2019-03-11T17:37:09.041Z,30.72
2019-03-11T17:39:39.811Z,30.59
2019-03-11T17:42:10.235Z,30.64
2019-03-11T17:44:40.378Z,30.49
2019-03-11T17:47:11.313Z,30.64
2019-03-11T17:49:45.070Z,30.83
2019-03-11T17:52:15.524Z,31.23
2019-03-11T17:54:45.963Z,31.24
2019-03-11T17:57:16.206Z,31.48
2019-03-11T17:59:46.915Z,31.35
2019-03-11T18:02:17.109Z,31.22
2019-03-11T18:04:47.154Z,32.00
2019-03-11T18:07:17.384Z,31.39
2019-03-11T18:09:47.597Z,31.54
2019-03-11T18:12:17.738Z,32.17
2019-03-11T18:14:47.955Z,32.07
2019-03-11T18:17:18.683Z,31.69
2019-03-11T18:19:49.456Z,31.90
2019-03-11T18:22:19.365Z,31.75
2019-03-11T18:24:49.774Z,32.09
2019-03-11T18:27:20.596Z,32.22
2019-03-11T18:29:51.005Z,32.09
2019-03-11T18:32:21.576Z,32.56
2019-03-11T18:34:52.268Z,32.29
2019-03-11T18:37:22.689Z,32.33
2019-03-11T18:39:53.146Z,32.57
2019-03-11T18:42:26.219Z,32.78
2019-03-11T18:44:56.338Z,33.71
2019-03-11T18:47:26.380Z,34.86
2019-03-11T18:49:56.365Z,34.30
2019-03-11T18:52:47.089Z,33.88
2019-03-11T18:55:18.062Z,34.52
2019-03-11T18:57:48.199Z,34.01
2019-03-11T19:00:19.416Z,33.92
2019-03-11T19:02:49.666Z,34.05
2019-03-11T19:05:19.945Z,35.29
2019-03-11T19:07:50.090Z,34.97
2019-03-11T19:10:20.286Z,35.18
2019-03-11T19:12:50.492Z,34.87
2019-03-11T19:15:20.717Z,35.59
2019-03-11T19:17:51.011Z,35.02
2019-03-11T19:20:21.306Z,34.97
2019-03-11T19:22:51.472Z,35.52
2019-03-11T19:25:21.669Z,36.42
2019-03-11T19:27:51.988Z,36.02
2019-03-11T19:30:22.394Z,35.59
2019-03-11T19:32:52.587Z,35.50
2019-03-11T19:35:23.128Z,35.20
2019-03-11T19:37:53.828Z,35.03
2019-03-11T19:40:24.321Z,34.74
2019-03-11T19:42:54.356Z,35.11
2019-03-11T19:45:24.857Z,36.60
2019-03-11T19:47:55.133Z,36.95
2019-03-11T19:50:25.429Z,36.43
2019-03-11T19:52:58.859Z,36.13
2019-03-11T19:55:27.836Z,36.01
2019-03-11T19:57:58.145Z,36.14
2019-03-11T20:00:28.783Z,37.83
2019-03-11T20:02:59.174Z,37.75
2019-03-11T20:05:29.716Z,37.47
2019-03-11T20:08:00.158Z,38.17
2019-03-11T20:10:30.651Z,36.86
2019-03-11T20:13:00.897Z,36.68
2019-03-11T20:15:31.162Z,36.65
2019-03-11T20:18:01.197Z,36.78
2019-03-11T20:20:31.350Z,36.47
2019-03-11T20:23:01.653Z,38.53
2019-03-11T20:25:32.028Z,39.82
2019-03-11T20:28:02.209Z,40.42
2019-03-11T20:30:32.845Z,40.28
2019-03-11T20:33:04.112Z,39.65
2019-03-11T20:35:34.581Z,40.34
2019-03-11T20:38:04.816Z,40.11
2019-03-11T20:40:35.011Z,38.87
2019-03-11T20:43:05.253Z,39.44
2019-03-11T20:45:35.532Z,40.44
2019-03-11T20:48:05.636Z,40.89
2019-03-11T20:50:42.094Z,40.88
2019-03-11T20:53:07.625Z,40.33
2019-03-11T20:55:37.904Z,39.72
2019-03-11T20:58:08.037Z,38.60
2019-03-11T21:00:38.178Z,38.38
2019-03-11T21:03:08.460Z,38.41
2019-03-11T21:05:38.825Z,38.06
2019-03-11T21:08:09.064Z,37.83
2019-03-11T21:10:39.130Z,37.87
2019-03-11T21:13:09.583Z,39.13
2019-03-11T21:15:39.842Z,38.04
2019-03-11T21:18:10.140Z,38.82
2019-03-11T21:20:40.574Z,41.05
2019-03-11T21:23:10.711Z,41.51
2019-03-11T21:25:40.739Z,41.16
2019-03-11T21:28:11.027Z,40.77
2019-03-11T21:30:41.351Z,42.09
2019-03-11T21:33:11.628Z,41.40
2019-03-11T21:35:42.172Z,41.96
2019-03-11T21:38:12.887Z,40.43
2019-03-11T21:40:43.543Z,40.34
2019-03-11T21:43:13.702Z,40.57
2019-03-11T21:45:44.081Z,40.72
2019-03-11T21:48:14.418Z,40.69
2019-03-11T21:50:45.116Z,40.36
2019-03-11T21:53:15.291Z,41.47
2019-03-11T21:55:45.844Z,42.35
2019-03-11T21:58:16.374Z,41.58
2019-03-11T22:00:46.495Z,42.09
2019-03-11T22:03:16.717Z,41.22
2019-03-11T22:05:46.916Z,40.03
2019-03-11T22:08:16.938Z,39.90
2019-03-11T22:10:46.971Z,40.69
2019-03-11T22:13:17.205Z,40.72
2019-03-11T22:15:47.401Z,42.25
2019-03-11T22:18:17.420Z,41.15
2019-03-11T22:20:47.727Z,42.75
2019-03-11T22:23:17.947Z,43.28
2019-03-11T22:25:48.145Z,42.26
2019-03-11T22:28:18.291Z,41.50
2019-03-11T22:30:48.326Z,41.74
2019-03-11T22:33:18.527Z,41.15
2019-03-11T22:35:48.678Z,41.29
2019-03-11T22:38:18.906Z,40.98
2019-03-11T22:40:49.095Z,41.91
2019-03-11T22:43:19.013Z,41.49
2019-03-11T22:45:49.059Z,41.68
2019-03-11T22:48:20.856Z,41.94
2019-03-11T22:50:51.230Z,41.41
2019-03-11T22:53:21.244Z,43.87
2019-03-11T22:55:51.469Z,44.93
2019-03-11T22:58:21.689Z,44.25
2019-03-11T23:00:58.454Z,43.68
2019-03-11T23:03:28.697Z,42.66
2019-03-11T23:05:58.891Z,43.03
2019-03-11T23:08:29.144Z,42.37
2019-03-11T23:10:59.340Z,43.60
2019-03-11T23:13:29.342Z,42.80
2019-03-11T23:15:59.275Z,41.81
2019-03-11T23:18:29.492Z,41.87
2019-03-11T23:20:59.679Z,42.41
2019-03-11T23:23:29.777Z,43.38
2019-03-11T23:25:59.709Z,42.03
2019-03-11T23:28:29.934Z,42.55
2019-03-11T23:31:00.651Z,41.95
2019-03-11T23:33:31.075Z,42.31
2019-03-11T23:36:01.428Z,41.98
2019-03-11T23:38:32.159Z,42.33
2019-03-11T23:41:02.664Z,42.32
2019-03-11T23:43:33.175Z,42.19
2019-03-11T23:46:03.629Z,43.49
2019-03-11T23:48:34.059Z,45.37
2019-03-11T23:51:04.565Z,45.37
2019-03-11T23:53:34.689Z,44.29
2019-03-11T23:56:04.946Z,42.94
2019-03-11T23:58:35.224Z,44.86
